Time;durP1;ratioP1;P1;durP2;ratioP2;P2;SDS_P1;SDS_P2;PMS_P1;PMS_P2;Temp;Humidity;BMP_temperature;BMP_pressure;BME280_temperature;BME280_humidity;BME280_pressure;Samples;Min_cycle;Max_cycle;Signal;HPM_P1;HPM_P2
2022/09/05 00:00:40;;;;;;;5.47;3.88;;;23.00;65.30;;;;;;6116457;28;80416;-59
2022/09/05 00:03:40;;;;;;;4.93;3.63;;;23.00;65.30;;;;;;6125741;28;83982;-58
2022/09/05 00:06:41;;;;;;;5.82;3.65;;;23.00;65.30;;;;;;6127525;28;80936;-58
2022/09/05 00:09:41;;;;;;;4.45;3.03;;;23.00;65.40;;;;;;6121355;28;80821;-58
2022/09/05 00:12:42;;;;;;;6.93;4.22;;;23.00;65.40;;;;;;6116051;28;82917;-70
2022/09/05 00:15:42;;;;;;;5.22;4.15;;;23.10;65.40;;;;;;6110493;28;80792;-70
2022/09/05 00:18:43;;;;;;;6.13;3.80;;;23.10;65.20;;;;;;6128065;28;80460;-70
2022/09/05 00:21:43;;;;;;;7.05;4.18;;;23.10;65.30;;;;;;6113637;28;80851;-69
2022/09/05 00:24:44;;;;;;;5.53;3.63;;;23.00;65.00;;;;;;6114599;28;80224;-68
2022/09/05 00:27:44;;;;;;;4.15;3.30;;;23.10;65.00;;;;;;6117677;28;82696;-67
2022/09/05 00:30:44;;;;;;;6.32;4.15;;;23.00;64.90;;;;;;6116688;28;84256;-56
2022/09/05 00:33:45;;;;;;;6.13;3.67;;;23.00;65.00;;;;;;6106666;28;81040;-63
2022/09/05 00:36:45;;;;;;;5.10;3.65;;;23.00;64.90;;;;;;6115859;28;87577;-64
2022/09/05 00:39:46;;;;;;;6.93;4.28;;;23.10;64.90;;;;;;6132683;28;80498;-63
2022/09/05 00:42:46;;;;;;;5.13;3.80;;;23.00;64.80;;;;;;6153407;28;81399;-63
2022/09/05 00:45:47;;;;;;;4.50;3.33;;;23.00;64.70;;;;;;6140123;28;80476;-63
2022/09/05 00:48:47;;;;;;;6.28;3.85;;;23.00;64.60;;;;;;6133195;28;80409;-63
2022/09/05 00:51:48;;;;;;;8.40;3.58;;;23.00;64.80;;;;;;6142574;28;83689;-66
2022/09/05 00:54:48;;;;;;;5.65;3.72;;;23.00;64.80;;;;;;6142703;28;81769;-66
2022/09/05 00:57:49;;;;;;;6.28;3.83;;;23.00;64.60;;;;;;6153792;28;83484;-67
2022/09/05 01:00:49;;;;;;;4.75;3.92;;;23.00;64.60;;;;;;6148902;28;81504;-66
2022/09/05 01:03:50;;;;;;;4.03;3.17;;;23.00;64.50;;;;;;6145957;28;80463;-66
2022/09/05 01:06:50;;;;;;;5.32;3.22;;;23.00;64.60;;;;;;6128771;28;80561;-69
2022/09/05 01:09:51;;;;;;;6.13;4.20;;;23.00;64.50;;;;;;6141312;28;80322;-68
2022/09/05 01:12:51;;;;;;;5.63;4.05;;;23.00;64.50;;;;;;6153755;28;83103;-68
2022/09/05 01:15:52;;;;;;;5.32;3.20;;;23.00;64.30;;;;;;6135415;28;80178;-66
2022/09/05 01:18:52;;;;;;;5.72;4.07;;;22.90;64.30;;;;;;6138622;28;86873;-66
2022/09/05 01:21:53;;;;;;;6.55;4.13;;;23.00;64.40;;;;;;6143945;28;80376;-67
2022/09/05 01:24:53;;;;;;;5.07;3.75;;;23.00;64.20;;;;;;6140647;28;80063;-67
2022/09/05 01:27:54;;;;;;;3.72;3.10;;;22.90;64.20;;;;;;6135145;28;80441;-66
2022/09/05 01:30:54;;;;;;;4.50;3.35;;;23.00;64.30;;;;;;6147358;28;80478;-66
2022/09/05 01:33:55;;;;;;;6.75;4.05;;;23.00;64.30;;;;;;6128074;28;85874;-66
2022/09/05 01:36:55;;;;;;;5.63;3.65;;;23.00;64.10;;;;;;6134190;28;80327;-65
2022/09/05 01:39:57;;;;;;;4.97;3.58;;;23.00;64.20;;;;;;6123836;28;81352;-67
2022/09/05 01:42:57;;;;;;;4.88;3.83;;;22.90;64.00;;;;;;6139847;28;80395;-66
2022/09/05 01:45:58;;;;;;;5.22;4.03;;;22.90;64.20;;;;;;6126381;28;80176;-57
2022/09/05 01:48:58;;;;;;;5.80;3.70;;;23.00;64.10;;;;;;6130845;28;80877;-57
2022/09/05 01:51:59;;;;;;;4.85;3.58;;;22.90;64.00;;;;;;6131385;28;81259;-56
2022/09/05 01:54:59;;;;;;;5.03;4.00;;;22.90;64.10;;;;;;6135979;28;80072;-57
2022/09/05 01:58:00;;;;;;;5.38;3.40;;;22.90;64.00;;;;;;6148279;28;80558;-58
2022/09/05 02:01:00;;;;;;;4.53;3.38;;;22.90;63.90;;;;;;6151047;28;81472;-58
2022/09/05 02:04:01;;;;;;;4.47;3.42;;;22.90;64.00;;;;;;6154677;28;82247;-57
2022/09/05 02:07:01;;;;;;;4.60;3.45;;;22.90;64.00;;;;;;6150815;28;86089;-58
2022/09/05 02:10:02;;;;;;;3.83;3.40;;;22.90;63.80;;;;;;6151624;28;81262;-58
2022/09/05 02:13:02;;;;;;;5.43;3.90;;;22.90;63.80;;;;;;6149230;28;83588;-58
2022/09/05 02:16:03;;;;;;;4.95;3.33;;;22.90;63.80;;;;;;6151782;28;81047;-58
2022/09/05 02:19:03;;;;;;;5.80;3.78;;;22.90;63.70;;;;;;6152844;28;80274;-58
2022/09/05 02:22:04;;;;;;;4.07;3.13;;;22.90;63.70;;;;;;6140227;28;80471;-56
2022/09/05 02:25:05;;;;;;;4.22;3.47;;;22.90;63.50;;;;;;6149957;28;80802;-57
2022/09/05 02:28:05;;;;;;;5.43;3.63;;;22.90;63.50;;;;;;6149720;28;80301;-58
2022/09/05 02:31:05;;;;;;;4.88;3.70;;;22.90;63.50;;;;;;6151551;28;81236;-58
2022/09/05 02:34:06;;;;;;;4.82;3.45;;;22.90;63.40;;;;;;6150089;28;80926;-58
2022/09/05 02:37:07;;;;;;;4.93;3.45;;;22.90;63.40;;;;;;6151961;28;81398;-57
2022/09/05 02:40:07;;;;;;;5.28;3.83;;;22.90;63.30;;;;;;6135816;28;80356;-60
2022/09/05 02:43:08;;;;;;;8.02;3.75;;;22.90;63.30;;;;;;6141100;28;80365;-60
2022/09/05 02:46:08;;;;;;;6.35;3.92;;;22.90;63.30;;;;;;6138083;28;80770;-60
2022/09/05 02:49:09;;;;;;;6.43;3.33;;;22.90;63.30;;;;;;6128559;28;81553;-60
2022/09/05 02:52:09;;;;;;;4.35;3.38;;;22.90;63.10;;;;;;6125835;28;80938;-61
2022/09/05 02:55:10;;;;;;;5.43;3.50;;;22.90;63.20;;;;;;6150170;28;81113;-61
2022/09/05 02:58:10;;;;;;;6.28;3.10;;;22.90;63.10;;;;;;6148187;28;80498;-63
2022/09/05 03:01:11;;;;;;;3.58;3.03;;;22.80;63.10;;;;;;6142609;28;80368;-65
2022/09/05 03:04:11;;;;;;;4.10;3.47;;;22.90;63.00;;;;;;6123944;28;81129;-64
2022/09/05 03:07:12;;;;;;;3.15;2.85;;;22.90;63.00;;;;;;6127876;28;81390;-64
2022/09/05 03:10:12;;;;;;;4.32;3.33;;;22.90;63.00;;;;;;6123831;28;84118;-64
2022/09/05 03:13:13;;;;;;;3.47;3.05;;;22.90;62.90;;;;;;6124389;28;80295;-66
2022/09/05 03:16:14;;;;;;;3.55;3.25;;;22.90;62.70;;;;;;6111068;28;82532;-60
2022/09/05 03:19:14;;;;;;;4.15;3.20;;;22.90;62.60;;;;;;6107211;28;80527;-60
2022/09/05 03:22:15;;;;;;;5.55;3.17;;;22.90;62.60;;;;;;6112066;28;80305;-58
2022/09/05 03:25:15;;;;;;;5.82;3.28;;;22.90;62.60;;;;;;6110885;28;80930;-60
2022/09/05 03:28:16;;;;;;;5.03;3.65;;;22.90;62.80;;;;;;6118481;28;80284;-59
2022/09/05 03:31:17;;;;;;;4.93;3.40;;;22.90;62.80;;;;;;6105710;28;80542;-59
2022/09/05 03:34:17;;;;;;;4.13;3.22;;;22.90;62.60;;;;;;6119769;28;80765;-59
2022/09/05 03:37:18;;;;;;;5.07;3.50;;;22.90;62.60;;;;;;6117493;28;83969;-71
2022/09/05 03:40:18;;;;;;;7.00;4.07;;;22.80;62.50;;;;;;6112345;28;81525;-72
2022/09/05 03:43:19;;;;;;;4.47;3.33;;;22.80;62.60;;;;;;6107283;28;81645;-72
2022/09/05 03:46:19;;;;;;;4.43;3.22;;;22.80;62.40;;;;;;6119807;28;83259;-71
2022/09/05 03:49:19;;;;;;;3.72;2.92;;;22.80;62.30;;;;;;6125834;28;80864;-68
2022/09/05 03:52:20;;;;;;;3.97;3.58;;;22.80;62.20;;;;;;6128473;28;81000;-67
2022/09/05 03:55:20;;;;;;;5.30;3.30;;;22.80;62.10;;;;;;6127438;28;82033;-58
2022/09/05 03:58:21;;;;;;;8.10;3.67;;;22.80;62.00;;;;;;6128305;28;80517;-58
2022/09/05 04:01:21;;;;;;;5.10;3.40;;;22.80;62.00;;;;;;6118045;28;81346;-58
2022/09/05 04:04:22;;;;;;;7.88;4.30;;;22.80;62.20;;;;;;6112234;28;80871;-57
2022/09/05 04:07:22;;;;;;;7.53;3.40;;;22.80;62.40;;;;;;6097359;28;80567;-59
2022/09/05 04:10:23;;;;;;;7.32;3.38;;;22.90;62.90;;;;;;6120765;28;80840;-59
2022/09/05 04:13:23;;;;;;;4.47;3.58;;;22.90;63.00;;;;;;6105698;28;80346;-59
2022/09/05 04:16:24;;;;;;;5.20;3.53;;;22.90;63.00;;;;;;6096717;28;82890;-60
2022/09/05 04:19:24;;;;;;;7.40;3.40;;;22.90;63.00;;;;;;6099003;28;85404;-60
2022/09/05 04:22:25;;;;;;;7.10;3.45;;;22.90;63.00;;;;;;6092939;28;84366;-60
2022/09/05 04:25:25;;;;;;;6.50;3.22;;;22.90;63.00;;;;;;6116788;28;80250;-59
2022/09/05 04:28:26;;;;;;;8.25;4.28;;;22.90;63.30;;;;;;6101773;28;81990;-60
2022/09/05 04:31:26;;;;;;;9.90;3.33;;;22.90;63.30;;;;;;6093184;28;85435;-65
2022/09/05 04:34:27;;;;;;;6.03;3.25;;;23.00;63.40;;;;;;6102604;28;80738;-65
2022/09/05 04:37:27;;;;;;;18.85;3.75;;;23.00;63.40;;;;;;6102768;28;80360;-66
2022/09/05 04:40:28;;;;;;;4.40;3.22;;;23.00;63.30;;;;;;6099645;28;81620;-64
2022/09/05 04:43:28;;;;;;;7.55;3.60;;;23.10;63.20;;;;;;6104129;28;80390;-63
2022/09/05 04:46:29;;;;;;;8.85;3.58;;;23.10;63.10;;;;;;6121881;28;80336;-61
2022/09/05 04:49:29;;;;;;;6.85;3.50;;;23.00;63.30;;;;;;6118997;28;80271;-60
2022/09/05 04:52:30;;;;;;;5.65;3.13;;;23.10;63.40;;;;;;6122964;28;80576;-61
2022/09/05 04:55:30;;;;;;;5.70;3.25;;;23.10;63.40;;;;;;6125935;28;80659;-60
2022/09/05 04:58:31;;;;;;;5.35;3.50;;;23.10;63.20;;;;;;6125570;28;80327;-67
2022/09/05 05:01:31;;;;;;;10.23;4.10;;;23.10;63.10;;;;;;6122726;28;80340;-63
2022/09/05 05:04:32;;;;;;;5.00;3.22;;;23.10;63.00;;;;;;6122257;28;85226;-62
2022/09/05 05:07:32;;;;;;;5.82;3.13;;;23.10;62.80;;;;;;6123347;28;80406;-53
2022/09/05 05:10:33;;;;;;;10.85;3.45;;;23.10;63.00;;;;;;6130053;28;80584;-56
2022/09/05 05:13:33;;;;;;;6.55;3.95;;;23.10;62.60;;;;;;6120470;28;80391;-53
2022/09/05 05:16:34;;;;;;;10.85;4.13;;;23.10;62.30;;;;;;6121681;28;80615;-57
2022/09/05 05:19:34;;;;;;;10.05;4.72;;;23.10;61.60;;;;;;6132955;28;81343;-57
2022/09/05 05:22:35;;;;;;;6.00;4.53;;;23.00;60.80;;;;;;6117815;28;83726;-56
2022/09/05 05:25:35;;;;;;;14.23;4.43;;;22.90;60.30;;;;;;6124722;28;80693;-60
2022/09/05 05:28:36;;;;;;;8.55;4.25;;;22.90;60.00;;;;;;6118951;28;82902;-60
2022/09/05 05:31:36;;;;;;;5.70;4.18;;;22.90;60.00;;;;;;6120206;28;80650;-60
2022/09/05 05:34:37;;;;;;;9.30;4.78;;;22.80;59.70;;;;;;6123470;28;81344;-60
2022/09/05 05:37:37;;;;;;;9.13;4.63;;;22.70;59.80;;;;;;6113082;28;80287;-61
2022/09/05 05:40:38;;;;;;;7.13;4.82;;;22.70;60.10;;;;;;6123224;28;81063;-61
2022/09/05 05:43:38;;;;;;;5.60;4.18;;;22.70;59.90;;;;;;6120908;28;85270;-63
2022/09/05 05:46:39;;;;;;;10.60;4.80;;;22.70;60.00;;;;;;6108109;28;80926;-62
2022/09/05 05:49:39;;;;;;;6.45;4.22;;;22.70;59.70;;;;;;6099731;28;80951;-62
2022/09/05 05:52:40;;;;;;;8.27;5.05;;;22.60;59.60;;;;;;6115860;28;80396;-64
2022/09/05 05:55:40;;;;;;;8.90;5.15;;;22.60;59.70;;;;;;6127518;28;80354;-60
2022/09/05 05:58:41;;;;;;;10.25;5.38;;;22.60;59.90;;;;;;6130552;28;81141;-63
2022/09/05 06:01:41;;;;;;;7.85;5.50;;;22.60;59.70;;;;;;6111903;28;80803;-63
2022/09/05 06:04:42;;;;;;;8.05;5.88;;;22.60;59.80;;;;;;6001195;28;87978;-61
2022/09/05 06:07:43;;;;;;;9.43;4.97;;;22.60;59.80;;;;;;6092626;28;81195;-64
2022/09/05 06:10:44;;;;;;;10.82;5.18;;;22.70;59.60;;;;;;6086373;28;85931;-68
2022/09/05 06:13:44;;;;;;;8.13;5.45;;;22.70;59.60;;;;;;6103759;28;86935;-64
2022/09/05 06:16:45;;;;;;;8.88;5.50;;;22.60;59.40;;;;;;6097452;28;83816;-65
2022/09/05 06:19:46;;;;;;;9.40;5.32;;;22.60;59.10;;;;;;6125458;28;81922;-57
2022/09/05 06:22:46;;;;;;;11.30;5.82;;;22.70;59.00;;;;;;6118450;28;80599;-56
2022/09/05 06:25:47;;;;;;;10.23;5.47;;;22.70;58.90;;;;;;6129381;28;80659;-58
2022/09/05 06:28:47;;;;;;;13.43;6.20;;;22.60;58.70;;;;;;6080095;28;82823;-56
2022/09/05 06:31:48;;;;;;;10.07;5.57;;;22.60;58.80;;;;;;6111240;28;83370;-57
2022/09/05 06:34:48;;;;;;;9.68;6.03;;;22.60;58.90;;;;;;6126154;28;81259;-57
2022/09/05 06:37:49;;;;;;;14.45;5.93;;;22.60;58.60;;;;;;6108764;28;80639;-57
2022/09/05 06:40:50;;;;;;;10.88;5.57;;;22.60;58.80;;;;;;6104980;28;80953;-64
2022/09/05 06:43:50;;;;;;;12.63;6.85;;;22.50;58.60;;;;;;6105371;28;82799;-61
2022/09/05 06:46:51;;;;;;;8.20;5.72;;;22.40;58.60;;;;;;6118748;28;80685;-62
2022/09/05 06:49:51;;;;;;;14.75;6.70;;;22.40;58.60;;;;;;6120382;28;85431;-63
2022/09/05 06:52:52;;;;;;;8.80;5.85;;;22.30;58.70;;;;;;6120951;28;80946;-62
2022/09/05 06:55:53;;;;;;;9.88;5.18;;;22.30;58.90;;;;;;6098613;28;86537;-64
2022/09/05 06:58:53;;;;;;;6.43;5.05;;;22.40;59.00;;;;;;6109570;28;83433;-59
2022/09/05 07:01:54;;;;;;;9.57;5.55;;;22.40;59.70;;;;;;6122470;28;80558;-59
2022/09/05 07:04:54;;;;;;;8.20;5.28;;;22.50;59.10;;;;;;6125423;28;80713;-60
2022/09/05 07:07:55;;;;;;;9.43;5.78;;;22.50;59.10;;;;;;6051256;28;84050;-59
2022/09/05 07:10:56;;;;;;;8.15;5.50;;;22.40;59.70;;;;;;6102789;28;80870;-58
2022/09/05 07:13:56;;;;;;;13.65;5.97;;;22.40;60.00;;;;;;6112060;28;80842;-59
2022/09/05 07:16:57;;;;;;;7.25;4.85;;;22.50;59.70;;;;;;6108058;28;81482;-59
2022/09/05 07:19:57;;;;;;;11.68;5.47;;;22.50;60.30;;;;;;6119632;28;89591;-59
2022/09/05 07:22:58;;;;;;;12.35;5.63;;;22.50;59.50;;;;;;6086334;28;84490;-59
2022/09/05 07:25:58;;;;;;;9.40;5.40;;;22.50;60.10;;;;;;6116717;28;87167;-59
2022/09/05 07:28:59;;;;;;;12.77;5.20;;;22.40;59.50;;;;;;6081997;28;81824;-59
2022/09/05 07:31:59;;;;;;;8.73;6.00;;;22.40;59.70;;;;;;6121828;28;80582;-59
2022/09/05 07:35:00;;;;;;;8.10;5.63;;;22.40;59.70;;;;;;6143220;28;80386;-64
2022/09/05 07:38:00;;;;;;;9.82;5.07;;;22.50;59.70;;;;;;6143624;28;80944;-64
2022/09/05 07:41:01;;;;;;;12.38;5.43;;;22.50;59.70;;;;;;6141008;28;80825;-65
2022/09/05 07:44:01;;;;;;;10.20;5.80;;;22.50;59.60;;;;;;6139264;28;86233;-65
2022/09/05 07:47:03;;;;;;;7.10;4.50;;;22.50;59.60;;;;;;6144363;28;81434;-68
2022/09/05 07:50:04;;;;;;;9.80;4.85;;;22.60;59.70;;;;;;6141717;28;80396;-67
2022/09/05 07:53:04;;;;;;;10.90;6.05;;;22.50;60.00;;;;;;6139787;28;80522;-67
2022/09/05 07:56:05;;;;;;;10.68;5.47;;;22.60;60.70;;;;;;6149533;28;83033;-64
2022/09/05 07:59:07;;;;;;;19.52;4.95;;;22.50;60.80;;;;;;6126474;28;87037;-66
2022/09/05 08:02:07;;;;;;;9.55;5.03;;;22.50;60.70;;;;;;6126182;28;80923;-66
2022/09/05 08:05:08;;;;;;;11.10;5.45;;;22.50;60.10;;;;;;6118865;28;81076;-67
2022/09/05 08:08:09;;;;;;;12.60;5.05;;;22.60;60.40;;;;;;6114638;28;80156;-64
2022/09/05 08:11:09;;;;;;;13.18;5.00;;;22.50;60.40;;;;;;6108951;28;80955;-58
2022/09/05 08:14:10;;;;;;;10.65;5.20;;;22.60;60.60;;;;;;6114123;28;85951;-60
2022/09/05 08:17:10;;;;;;;9.77;4.75;;;22.60;60.60;;;;;;6119836;28;81226;-59
2022/09/05 08:20:11;;;;;;;8.02;5.40;;;22.60;60.80;;;;;;6114511;28;86297;-61
2022/09/05 08:23:11;;;;;;;8.07;4.05;;;22.60;60.90;;;;;;6101116;28;81946;-62
2022/09/05 08:26:12;;;;;;;9.27;4.70;;;22.70;61.00;;;;;;6117954;28;81912;-63
2022/09/05 08:29:12;;;;;;;8.27;4.15;;;22.70;61.50;;;;;;6114636;28;83967;-62
2022/09/05 08:32:12;;;;;;;12.63;4.38;;;22.80;60.70;;;;;;6119294;28;80728;-63
2022/09/05 08:35:13;;;;;;;8.65;3.88;;;22.80;60.70;;;;;;6117251;28;81113;-64
2022/09/05 08:38:14;;;;;;;5.97;3.92;;;22.80;60.20;;;;;;6118444;28;80002;-63
2022/09/05 08:41:14;;;;;;;5.60;3.53;;;22.80;60.00;;;;;;6124893;28;80672;-63
2022/09/05 08:44:15;;;;;;;6.25;3.67;;;22.90;59.50;;;;;;6125962;28;80513;-64
2022/09/05 08:47:16;;;;;;;7.95;3.22;;;22.90;58.90;;;;;;6133566;28;80663;-64
2022/09/05 08:50:17;;;;;;;5.03;3.92;;;23.00;58.70;;;;;;6129056;28;82799;-67
2022/09/05 08:53:17;;;;;;;7.35;3.28;;;23.10;58.60;;;;;;6130358;28;80430;-70
2022/09/05 08:56:18;;;;;;;9.05;4.35;;;23.20;58.60;;;;;;6125579;28;82127;-69
2022/09/05 08:59:18;;;;;;;13.77;4.65;;;23.10;58.90;;;;;;6117451;28;88324;-65
2022/09/05 09:02:19;;;;;;;13.52;5.82;;;23.10;59.80;;;;;;6134129;28;80570;-65
2022/09/05 09:05:19;;;;;;;14.40;4.97;;;23.10;61.70;;;;;;6105401;28;82933;-65
2022/09/05 09:08:20;;;;;;;10.95;4.32;;;23.20;60.10;;;;;;6106251;28;83314;-67
2022/09/05 09:11:20;;;;;;;5.78;4.32;;;23.30;59.60;;;;;;6099103;28;80868;-69
2022/09/05 09:14:21;;;;;;;5.53;3.60;;;23.40;59.00;;;;;;6120192;28;85553;-65
2022/09/05 09:17:21;;;;;;;6.78;3.65;;;23.50;59.20;;;;;;6114844;28;82973;-66
2022/09/05 09:20:22;;;;;;;6.43;3.83;;;23.40;58.60;;;;;;6111892;28;81617;-66
2022/09/05 09:23:22;;;;;;;7.15;4.10;;;23.30;58.70;;;;;;6116688;28;83601;-66
2022/09/05 09:26:23;;;;;;;7.68;4.03;;;23.20;58.80;;;;;;6120846;28;81541;-59
2022/09/05 09:29:23;;;;;;;7.43;3.90;;;23.10;59.20;;;;;;6129318;28;80987;-60
2022/09/05 09:32:24;;;;;;;6.07;3.45;;;23.20;59.50;;;;;;6125776;28;80889;-60
2022/09/05 09:35:24;;;;;;;5.25;3.50;;;23.40;59.20;;;;;;6128984;28;83408;-60
2022/09/05 09:38:25;;;;;;;5.72;3.50;;;23.40;57.80;;;;;;6123976;28;80399;-60
2022/09/05 09:41:25;;;;;;;9.27;3.17;;;23.50;58.60;;;;;;6122773;28;80927;-57
2022/09/05 09:44:26;;;;;;;5.15;3.42;;;23.60;60.80;;;;;;6120891;28;82701;-58
2022/09/05 09:47:26;;;;;;;6.25;3.67;;;23.60;58.00;;;;;;6118369;28;80020;-58
2022/09/05 09:50:27;;;;;;;5.68;3.55;;;23.50;56.20;;;;;;6102302;28;81647;-58
2022/09/05 09:53:28;;;;;;;7.63;3.55;;;23.50;56.20;;;;;;6115810;28;80265;-58
2022/09/05 09:56:29;;;;;;;4.03;3.30;;;23.60;56.80;;;;;;6106895;28;81189;-56
2022/09/05 09:59:30;;;;;;;5.88;3.50;;;23.60;56.00;;;;;;6120923;28;80323;-57
2022/09/05 10:02:33;;;;;;;6.50;3.72;;;23.60;56.10;;;;;;6123406;28;79991;-58
2022/09/05 10:05:34;;;;;;;9.23;3.45;;;23.60;55.40;;;;;;6127931;28;80405;-56
2022/09/05 10:08:34;;;;;;;10.05;3.65;;;23.60;55.70;;;;;;6125965;28;81356;-57
2022/09/05 10:11:35;;;;;;;8.07;3.60;;;23.60;55.60;;;;;;6123176;28;80611;-57
2022/09/05 10:14:36;;;;;;;11.00;4.60;;;23.60;55.30;;;;;;6150713;28;85712;-62
2022/09/05 10:17:36;;;;;;;6.25;3.50;;;23.50;55.40;;;;;;6151821;28;80191;-58
2022/09/05 10:20:38;;;;;;;18.17;3.75;;;23.50;55.70;;;;;;6144739;28;81607;-64
2022/09/05 10:23:38;;;;;;;8.95;3.85;;;23.50;55.60;;;;;;6137007;28;81360;-68
2022/09/05 10:26:39;;;;;;;8.40;4.05;;;23.50;55.50;;;;;;6128895;28;83458;-67
2022/09/05 10:29:39;;;;;;;9.77;4.07;;;23.40;54.70;;;;;;6125811;28;80686;-66
2022/09/05 10:32:40;;;;;;;6.53;4.03;;;23.30;54.70;;;;;;6135772;28;80448;-66
2022/09/05 10:35:40;;;;;;;7.32;3.30;;;23.40;54.80;;;;;;6125631;28;80374;-66
2022/09/05 10:38:41;;;;;;;5.70;3.72;;;23.20;54.50;;;;;;6095857;28;80283;-56
2022/09/05 10:41:41;;;;;;;12.20;3.65;;;23.00;53.60;;;;;;6108979;28;80160;-59
2022/09/05 10:44:42;;;;;;;6.63;3.80;;;23.00;53.90;;;;;;6116290;28;81463;-59
2022/09/05 10:47:42;;;;;;;6.15;3.25;;;23.00;54.20;;;;;;6123356;28;81237;-59
2022/09/05 10:50:43;;;;;;;6.65;3.33;;;22.90;54.50;;;;;;6129958;28;84396;-59
2022/09/05 10:53:44;;;;;;;11.70;3.42;;;22.80;54.30;;;;;;6111325;28;80422;-59
2022/09/05 10:56:44;;;;;;;8.13;3.67;;;22.80;54.50;;;;;;6125467;28;82659;-58
2022/09/05 10:59:45;;;;;;;8.65;3.53;;;22.90;56.40;;;;;;6106083;28;80128;-58
2022/09/05 11:02:48;;;;;;;5.75;3.50;;;22.90;56.30;;;;;;6109197;28;86040;-63
2022/09/05 11:05:48;;;;;;;7.15;3.60;;;23.00;56.40;;;;;;6105028;28;80634;-65
2022/09/05 11:08:49;;;;;;;6.35;3.78;;;23.00;56.60;;;;;;6109676;28;80359;-59
2022/09/05 11:11:49;;;;;;;4.20;3.13;;;23.10;56.80;;;;;;6111381;28;80173;-59
2022/09/05 11:14:51;;;;;;;6.40;3.63;;;23.00;54.60;;;;;;6090812;28;81862;-64
2022/09/05 11:17:51;;;;;;;4.80;3.13;;;23.10;53.70;;;;;;6123166;28;80291;-64
2022/09/05 11:20:52;;;;;;;7.63;3.30;;;23.00;53.30;;;;;;6122452;28;81746;-64
2022/09/05 11:23:52;;;;;;;9.63;3.95;;;23.10;53.70;;;;;;6114603;28;80823;-65
2022/09/05 11:26:53;;;;;;;10.30;4.05;;;23.10;53.90;;;;;;6123168;28;84165;-65
2022/09/05 11:29:53;;;;;;;7.22;3.72;;;23.00;53.90;;;;;;6124852;28;80976;-66
2022/09/05 11:32:54;;;;;;;5.53;3.17;;;23.10;53.70;;;;;;6126552;28;80306;-64
2022/09/05 11:35:54;;;;;;;6.97;3.83;;;23.30;54.70;;;;;;6122376;28;80414;-66
2022/09/05 11:38:54;;;;;;;9.52;3.95;;;23.50;54.40;;;;;;6112015;28;80633;-66
2022/09/05 11:41:55;;;;;;;7.03;3.40;;;23.40;52.80;;;;;;6119475;28;80824;-65
2022/09/05 11:44:56;;;;;;;5.45;3.33;;;23.40;53.30;;;;;;6104400;28;80284;-65
2022/09/05 11:47:56;;;;;;;4.85;3.53;;;23.20;52.80;;;;;;6105699;28;80563;-64
2022/09/05 11:50:57;;;;;;;5.78;3.70;;;23.20;52.90;;;;;;6084078;28;81677;-61
2022/09/05 11:53:57;;;;;;;6.53;3.28;;;23.40;53.10;;;;;;6092629;28;80400;-61
2022/09/05 11:56:58;;;;;;;6.18;3.50;;;23.40;52.90;;;;;;6124782;28;80400;-59
2022/09/05 11:59:58;;;;;;;7.07;3.83;;;23.30;52.40;;;;;;6110799;28;81010;-58
2022/09/05 12:02:59;;;;;;;10.90;3.70;;;23.50;53.60;;;;;;6109512;28;84315;-57
2022/09/05 12:06:00;;;;;;;16.08;4.40;;;23.60;53.80;;;;;;6108510;28;80449;-57
2022/09/05 12:09:00;;;;;;;6.35;3.55;;;23.80;54.00;;;;;;6103787;28;80366;-58
2022/09/05 12:12:01;;;;;;;51.83;17.85;;;23.90;53.30;;;;;;6107047;28;81037;-58
2022/09/05 12:15:01;;;;;;;26.05;8.75;;;24.00;53.40;;;;;;6107074;28;82836;-58
2022/09/05 12:18:02;;;;;;;14.52;6.40;;;24.10;52.40;;;;;;6099915;28;82993;-56
2022/09/05 12:21:02;;;;;;;13.77;5.15;;;24.10;52.00;;;;;;6097642;28;80941;-58
2022/09/05 12:24:03;;;;;;;37.65;14.25;;;24.20;51.40;;;;;;6104328;28;80784;-58
2022/09/05 12:27:03;;;;;;;23.95;9.38;;;24.10;51.20;;;;;;6105206;28;83733;-70
2022/09/05 12:30:04;;;;;;;22.05;9.93;;;24.10;51.70;;;;;;6110742;28;82925;-71
2022/09/05 12:33:09;;;;;;;13.85;5.70;;;24.20;51.20;;;;;;6117876;28;80562;-73
2022/09/05 12:36:09;;;;;;;8.10;3.58;;;24.20;50.20;;;;;;6117459;28;80611;-70
2022/09/05 12:39:10;;;;;;;10.32;4.50;;;24.30;50.30;;;;;;6118077;28;84449;-72
2022/09/05 12:42:11;;;;;;;10.18;5.50;;;24.40;50.70;;;;;;6129314;28;80720;-68
2022/09/05 12:45:12;;;;;;;11.32;6.47;;;24.50;50.50;;;;;;6126378;28;81336;-73
2022/09/05 12:48:12;;;;;;;19.45;8.43;;;24.50;50.40;;;;;;6117121;28;80755;-60
2022/09/05 12:51:14;;;;;;;14.35;6.00;;;24.60;50.50;;;;;;6107532;28;82077;-59
2022/09/05 12:54:16;;;;;;;27.40;10.85;;;24.60;49.60;;;;;;6129822;28;80875;-60
2022/09/05 12:57:17;;;;;;;9.45;4.80;;;24.60;49.60;;;;;;6115424;28;84003;-59
2022/09/05 13:00:20;;;;;;;7.95;4.22;;;24.40;48.90;;;;;;6116881;28;83081;-60
2022/09/05 13:03:21;;;;;;;4.35;3.63;;;24.30;49.50;;;;;;6111461;28;80427;-58
2022/09/05 13:06:21;;;;;;;5.43;3.63;;;24.30;49.80;;;;;;6114361;28;80522;-61
2022/09/05 13:09:22;;;;;;;6.80;4.20;;;24.30;49.50;;;;;;6118639;28;80678;-61
2022/09/05 13:12:23;;;;;;;7.15;4.10;;;24.10;49.00;;;;;;6127479;28;80990;-63
2022/09/05 13:15:25;;;;;;;7.70;3.70;;;24.10;49.20;;;;;;6122078;28;80656;-60
2022/09/05 13:18:27;;;;;;;5.78;3.22;;;24.00;49.30;;;;;;6108565;28;80932;-62
2022/09/05 13:21:27;;;;;;;5.80;3.72;;;24.00;49.50;;;;;;6119965;28;80403;-61
2022/09/05 13:24:31;;;;;;;6.43;3.35;;;24.00;49.40;;;;;;6126587;28;80975;-62
2022/09/05 13:27:31;;;;;;;5.35;3.35;;;23.90;49.50;;;;;;6120630;28;80466;-63
2022/09/05 13:30:31;;;;;;;4.40;2.88;;;23.90;49.70;;;;;;6126185;28;81250;-62
2022/09/05 13:33:35;;;;;;;4.45;2.97;;;23.80;50.10;;;;;;6123375;28;81130;-67
2022/09/05 13:36:36;;;;;;;7.32;3.65;;;23.80;50.30;;;;;;6120333;28;80585;-62
2022/09/05 13:39:36;;;;;;;123.10;24.50;;;23.80;50.70;;;;;;6110751;28;80542;-61
2022/09/05 13:42:37;;;;;;;108.93;22.75;;;23.80;51.20;;;;;;6108524;28;83567;-63
2022/09/05 13:45:38;;;;;;;123.28;26.13;;;23.90;51.50;;;;;;6126914;28;83027;-64
2022/09/05 13:48:38;;;;;;;128.07;43.58;;;24.00;51.60;;;;;;6114344;28;83136;-62
2022/09/05 13:51:39;;;;;;;94.07;30.33;;;24.00;52.20;;;;;;6108106;28;83432;-63
2022/09/05 13:54:40;;;;;;;75.00;23.58;;;24.00;51.80;;;;;;6121057;28;83230;-63
2022/09/05 13:57:40;;;;;;;37.85;12.40;;;24.10;51.70;;;;;;6123916;28;83339;-62
2022/09/05 14:00:41;;;;;;;17.95;6.55;;;24.20;50.40;;;;;;6116163;28;89931;-58
2022/09/05 14:03:42;;;;;;;14.18;6.53;;;24.10;49.00;;;;;;6114144;28;83982;-58
2022/09/05 14:06:47;;;;;;;16.25;5.93;;;24.10;49.10;;;;;;6133793;28;80533;-59
2022/09/05 14:09:47;;;;;;;13.63;4.47;;;24.20;49.00;;;;;;6142457;28;80467;-60
2022/09/05 14:12:48;;;;;;;7.28;4.65;;;24.20;48.70;;;;;;6144254;28;81711;-59
2022/09/05 14:15:48;;;;;;;9.95;4.38;;;24.20;49.10;;;;;;6133153;28;83310;-59
2022/09/05 14:22:19;;;;;;;10.05;5.95;;;24.30;49.40;;;;;;6100025;28;83737;-63
2022/09/05 14:25:19;;;;;;;10.75;5.78;;;24.40;49.60;;;;;;6124294;28;82289;-61
2022/09/05 14:28:20;;;;;;;11.93;5.80;;;24.40;50.00;;;;;;6117334;28;82439;-61
2022/09/05 14:31:20;;;;;;;12.02;5.28;;;24.40;50.30;;;;;;6122375;28;80951;-64
2022/09/05 14:34:21;;;;;;;11.07;4.82;;;24.40;50.40;;;;;;6130021;28;81703;-62
2022/09/05 14:37:22;;;;;;;10.43;5.10;;;24.40;49.10;;;;;;6142095;28;80623;-57
2022/09/05 14:40:23;;;;;;;11.60;4.63;;;24.40;49.90;;;;;;6123208;28;84342;-58
2022/09/05 14:43:23;;;;;;;7.20;3.70;;;24.40;49.70;;;;;;6127692;28;83270;-57
2022/09/05 14:46:24;;;;;;;8.10;3.65;;;24.40;49.50;;;;;;6138496;28;80694;-61
2022/09/05 14:49:24;;;;;;;8.75;3.53;;;24.40;49.40;;;;;;6145105;28;80516;-61
2022/09/05 14:52:25;;;;;;;10.55;4.10;;;24.40;49.50;;;;;;6126947;28;83402;-59
2022/09/05 14:55:26;;;;;;;9.02;3.63;;;24.40;49.80;;;;;;6116502;28;82093;-59
2022/09/05 14:58:26;;;;;;;4.57;3.10;;;24.40;50.00;;;;;;6122348;28;80772;-60
2022/09/05 15:01:29;;;;;;;4.63;2.80;;;24.40;48.90;;;;;;6121836;28;85615;-60
2022/09/05 15:04:29;;;;;;;4.43;3.17;;;24.30;49.50;;;;;;6120966;28;83541;-59
2022/09/05 15:07:30;;;;;;;4.82;3.10;;;24.30;49.20;;;;;;6100776;28;83709;-59
2022/09/05 15:10:31;;;;;;;8.18;3.45;;;24.30;49.10;;;;;;6104377;28;80620;-60
2022/09/05 15:13:33;;;;;;;5.63;3.25;;;24.30;49.10;;;;;;6081067;28;80696;-63
2022/09/05 15:16:42;;;;;;;5.32;3.47;;;24.30;48.30;;;;;;6083411;28;82697;-62
2022/09/05 15:19:42;;;;;;;18.08;3.50;;;24.30;48.60;;;;;;6079774;28;82304;-59
2022/09/05 15:22:43;;;;;;;7.25;3.42;;;24.20;48.90;;;;;;6093918;28;83609;-60
2022/09/05 15:25:44;;;;;;;8.48;3.80;;;24.10;48.00;;;;;;6086769;28;81260;-61
2022/09/05 15:28:44;;;;;;;5.10;3.13;;;24.10;48.20;;;;;;6081485;28;82722;-60
2022/09/05 15:31:45;;;;;;;6.95;3.17;;;24.10;48.70;;;;;;6090271;28;82894;-58
2022/09/05 15:34:46;;;;;;;5.53;2.97;;;24.10;48.60;;;;;;6118414;28;82682;-58
2022/09/05 15:37:48;;;;;;;6.70;3.00;;;24.10;48.80;;;;;;6119062;28;83660;-60